sensor_id;sensor_type;location;lat;lon;timestamp;P1;durP1;ratioP1;P2;durP2;ratioP2
12429;SDS011;6279;42.192;24.326;2023-05-08T00:02:13;3.87;;;2.90;;
12429;SDS011;6279;42.192;24.326;2023-05-08T00:04:38;4.63;;;3.07;;
12429;SDS011;6279;42.192;24.326;2023-05-08T00:07:04;7.13;;;3.03;;
12429;SDS011;6279;42.192;24.326;2023-05-08T00:09:29;3.83;;;3.00;;
12429;SDS011;6279;42.192;24.326;2023-05-08T00:11:54;5.33;;;2.97;;
12429;SDS011;6279;42.192;24.326;2023-05-08T00:14:20;5.90;;;3.17;;
12429;SDS011;6279;42.192;24.326;2023-05-08T00:16:45;3.50;;;2.97;;
12429;SDS011;6279;42.192;24.326;2023-05-08T00:19:10;4.13;;;3.00;;
12429;SDS011;6279;42.192;24.326;2023-05-08T00:21:36;5.00;;;2.97;;
12429;SDS011;6279;42.192;24.326;2023-05-08T00:24:01;6.70;;;3.30;;
12429;SDS011;6279;42.192;24.326;2023-05-08T00:26:27;4.70;;;3.20;;
12429;SDS011;6279;42.192;24.326;2023-05-08T00:28:52;5.60;;;3.30;;
12429;SDS011;6279;42.192;24.326;2023-05-08T00:31:17;10.17;;;3.17;;
12429;SDS011;6279;42.192;24.326;2023-05-08T00:33:43;4.77;;;2.90;;
12429;SDS011;6279;42.192;24.326;2023-05-08T00:36:08;5.00;;;2.93;;
12429;SDS011;6279;42.192;24.326;2023-05-08T00:38:34;4.80;;;2.60;;
12429;SDS011;6279;42.192;24.326;2023-05-08T00:41:01;7.33;;;3.33;;
12429;SDS011;6279;42.192;24.326;2023-05-08T00:43:27;6.93;;;3.37;;
12429;SDS011;6279;42.192;24.326;2023-05-08T00:45:53;5.33;;;2.80;;
12429;SDS011;6279;42.192;24.326;2023-05-08T00:48:20;4.97;;;3.40;;
12429;SDS011;6279;42.192;24.326;2023-05-08T00:50:50;8.90;;;3.37;;
12429;SDS011;6279;42.192;24.326;2023-05-08T00:53:18;5.77;;;3.30;;
12429;SDS011;6279;42.192;24.326;2023-05-08T00:55:44;4.63;;;3.10;;
12429;SDS011;6279;42.192;24.326;2023-05-08T00:58:10;4.97;;;3.20;;
12429;SDS011;6279;42.192;24.326;2023-05-08T01:00:37;5.80;;;2.80;;
12429;SDS011;6279;42.192;24.326;2023-05-08T01:03:05;6.53;;;3.20;;
12429;SDS011;6279;42.192;24.326;2023-05-08T01:05:31;5.67;;;3.20;;
12429;SDS011;6279;42.192;24.326;2023-05-08T01:07:57;7.50;;;3.20;;
12429;SDS011;6279;42.192;24.326;2023-05-08T01:10:23;5.33;;;3.13;;
12429;SDS011;6279;42.192;24.326;2023-05-08T01:13:01;4.40;;;3.10;;
12429;SDS011;6279;42.192;24.326;2023-05-08T01:15:34;6.13;;;2.90;;
12429;SDS011;6279;42.192;24.326;2023-05-08T01:31:50;4.50;;;2.87;;
12429;SDS011;6279;42.192;24.326;2023-05-08T01:34:43;5.73;;;3.17;;
12429;SDS011;6279;42.192;24.326;2023-05-08T01:37:14;4.93;;;2.60;;
12429;SDS011;6279;42.192;24.326;2023-05-08T01:40:07;4.60;;;2.57;;
12429;SDS011;6279;42.192;24.326;2023-05-08T01:42:48;5.00;;;2.67;;
12429;SDS011;6279;42.192;24.326;2023-05-08T01:45:21;6.20;;;2.60;;
12429;SDS011;6279;42.192;24.326;2023-05-08T01:48:04;4.93;;;2.67;;
12429;SDS011;6279;42.192;24.326;2023-05-08T01:50:36;5.77;;;2.80;;
12429;SDS011;6279;42.192;24.326;2023-05-08T01:53:26;4.93;;;2.40;;
12429;SDS011;6279;42.192;24.326;2023-05-08T01:55:55;6.23;;;2.60;;
12429;SDS011;6279;42.192;24.326;2023-05-08T01:58:23;4.47;;;2.50;;
12429;SDS011;6279;42.192;24.326;2023-05-08T02:00:50;5.27;;;2.70;;
12429;SDS011;6279;42.192;24.326;2023-05-08T02:03:17;6.23;;;2.70;;
12429;SDS011;6279;42.192;24.326;2023-05-08T02:05:45;4.50;;;2.67;;
12429;SDS011;6279;42.192;24.326;2023-05-08T02:08:13;7.60;;;2.90;;
12429;SDS011;6279;42.192;24.326;2023-05-08T02:10:40;4.60;;;2.90;;
12429;SDS011;6279;42.192;24.326;2023-05-08T02:13:06;4.20;;;2.77;;
12429;SDS011;6279;42.192;24.326;2023-05-08T02:15:34;2.97;;;2.40;;
12429;SDS011;6279;42.192;24.326;2023-05-08T02:18:03;6.77;;;3.40;;
12429;SDS011;6279;42.192;24.326;2023-05-08T02:20:31;7.13;;;3.30;;
12429;SDS011;6279;42.192;24.326;2023-05-08T02:22:57;6.97;;;3.07;;
12429;SDS011;6279;42.192;24.326;2023-05-08T02:25:23;5.20;;;3.77;;
12429;SDS011;6279;42.192;24.326;2023-05-08T02:27:50;4.10;;;3.07;;
12429;SDS011;6279;42.192;24.326;2023-05-08T02:30:18;5.53;;;3.57;;
12429;SDS011;6279;42.192;24.326;2023-05-08T02:32:48;10.40;;;3.83;;
12429;SDS011;6279;42.192;24.326;2023-05-08T02:35:15;6.40;;;3.77;;
12429;SDS011;6279;42.192;24.326;2023-05-08T02:37:43;5.30;;;3.90;;
12429;SDS011;6279;42.192;24.326;2023-05-08T02:40:10;6.57;;;3.93;;
12429;SDS011;6279;42.192;24.326;2023-05-08T02:42:38;8.30;;;4.33;;
12429;SDS011;6279;42.192;24.326;2023-05-08T02:45:04;4.13;;;3.73;;
12429;SDS011;6279;42.192;24.326;2023-05-08T02:47:38;4.47;;;3.83;;
12429;SDS011;6279;42.192;24.326;2023-05-08T02:53:15;9.27;;;3.63;;
12429;SDS011;6279;42.192;24.326;2023-05-08T02:55:47;4.97;;;3.90;;
12429;SDS011;6279;42.192;24.326;2023-05-08T03:03:59;6.93;;;3.80;;
12429;SDS011;6279;42.192;24.326;2023-05-08T03:06:32;5.03;;;3.70;;
12429;SDS011;6279;42.192;24.326;2023-05-08T03:09:04;9.47;;;4.23;;
12429;SDS011;6279;42.192;24.326;2023-05-08T03:11:41;5.10;;;3.97;;
12429;SDS011;6279;42.192;24.326;2023-05-08T03:14:09;5.77;;;4.17;;
12429;SDS011;6279;42.192;24.326;2023-05-08T03:16:37;4.10;;;3.60;;
12429;SDS011;6279;42.192;24.326;2023-05-08T03:21:55;4.63;;;3.50;;
12429;SDS011;6279;42.192;24.326;2023-05-08T03:24:22;4.13;;;3.40;;
12429;SDS011;6279;42.192;24.326;2023-05-08T03:26:49;6.00;;;3.83;;
12429;SDS011;6279;42.192;24.326;2023-05-08T03:29:15;3.87;;;3.37;;
12429;SDS011;6279;42.192;24.326;2023-05-08T03:31:41;3.97;;;3.33;;
12429;SDS011;6279;42.192;24.326;2023-05-08T03:34:08;7.70;;;4.00;;
12429;SDS011;6279;42.192;24.326;2023-05-08T03:36:37;7.50;;;3.97;;
12429;SDS011;6279;42.192;24.326;2023-05-08T03:39:02;7.00;;;3.80;;
12429;SDS011;6279;42.192;24.326;2023-05-08T03:41:28;6.43;;;4.10;;
12429;SDS011;6279;42.192;24.326;2023-05-08T03:43:54;7.47;;;4.33;;
12429;SDS011;6279;42.192;24.326;2023-05-08T03:46:20;5.70;;;4.23;;
12429;SDS011;6279;42.192;24.326;2023-05-08T03:48:46;5.27;;;3.70;;
12429;SDS011;6279;42.192;24.326;2023-05-08T03:51:13;6.03;;;3.70;;
12429;SDS011;6279;42.192;24.326;2023-05-08T03:53:39;8.83;;;3.70;;
12429;SDS011;6279;42.192;24.326;2023-05-08T03:56:05;4.93;;;3.40;;
12429;SDS011;6279;42.192;24.326;2023-05-08T03:58:46;5.47;;;3.83;;
12429;SDS011;6279;42.192;24.326;2023-05-08T04:01:27;9.77;;;4.10;;
12429;SDS011;6279;42.192;24.326;2023-05-08T04:06:43;5.27;;;4.07;;
12429;SDS011;6279;42.192;24.326;2023-05-08T04:09:23;6.90;;;3.80;;
12429;SDS011;6279;42.192;24.326;2023-05-08T04:12:07;6.77;;;4.07;;
12429;SDS011;6279;42.192;24.326;2023-05-08T04:17:36;5.77;;;4.20;;
12429;SDS011;6279;42.192;24.326;2023-05-08T04:20:08;8.13;;;4.00;;
12429;SDS011;6279;42.192;24.326;2023-05-08T04:22:37;8.47;;;4.57;;
12429;SDS011;6279;42.192;24.326;2023-05-08T04:25:05;11.37;;;3.80;;
12429;SDS011;6279;42.192;24.326;2023-05-08T04:27:31;6.23;;;3.60;;
12429;SDS011;6279;42.192;24.326;2023-05-08T04:29:58;8.57;;;4.10;;
12429;SDS011;6279;42.192;24.326;2023-05-08T04:32:24;5.67;;;4.07;;
12429;SDS011;6279;42.192;24.326;2023-05-08T04:34:51;6.43;;;3.67;;
12429;SDS011;6279;42.192;24.326;2023-05-08T04:37:26;6.57;;;3.90;;
12429;SDS011;6279;42.192;24.326;2023-05-08T04:39:53;8.87;;;3.80;;
12429;SDS011;6279;42.192;24.326;2023-05-08T04:42:19;4.63;;;3.30;;
12429;SDS011;6279;42.192;24.326;2023-05-08T04:44:45;7.80;;;3.90;;
12429;SDS011;6279;42.192;24.326;2023-05-08T04:47:11;4.60;;;3.70;;
12429;SDS011;6279;42.192;24.326;2023-05-08T04:49:37;4.23;;;3.43;;
12429;SDS011;6279;42.192;24.326;2023-05-08T04:52:03;5.70;;;3.57;;
12429;SDS011;6279;42.192;24.326;2023-05-08T04:54:28;4.40;;;3.67;;
12429;SDS011;6279;42.192;24.326;2023-05-08T04:56:54;6.47;;;3.70;;
12429;SDS011;6279;42.192;24.326;2023-05-08T04:59:19;6.90;;;4.20;;
12429;SDS011;6279;42.192;24.326;2023-05-08T05:01:45;5.83;;;4.13;;
12429;SDS011;6279;42.192;24.326;2023-05-08T05:04:11;8.87;;;4.70;;
12429;SDS011;6279;42.192;24.326;2023-05-08T05:06:37;7.53;;;5.10;;
12429;SDS011;6279;42.192;24.326;2023-05-08T05:09:02;4.10;;;2.90;;
12429;SDS011;6279;42.192;24.326;2023-05-08T05:11:29;3.57;;;3.27;;
12429;SDS011;6279;42.192;24.326;2023-05-08T05:13:54;5.03;;;3.80;;
12429;SDS011;6279;42.192;24.326;2023-05-08T05:16:20;5.90;;;3.77;;
12429;SDS011;6279;42.192;24.326;2023-05-08T05:18:45;6.30;;;3.60;;
12429;SDS011;6279;42.192;24.326;2023-05-08T05:21:11;4.83;;;3.80;;
12429;SDS011;6279;42.192;24.326;2023-05-08T05:23:36;14.30;;;4.17;;
12429;SDS011;6279;42.192;24.326;2023-05-08T05:26:02;7.63;;;3.43;;
12429;SDS011;6279;42.192;24.326;2023-05-08T05:28:27;9.30;;;3.50;;
12429;SDS011;6279;42.192;24.326;2023-05-08T05:30:53;4.97;;;3.53;;
12429;SDS011;6279;42.192;24.326;2023-05-08T05:33:18;6.63;;;3.30;;
12429;SDS011;6279;42.192;24.326;2023-05-08T05:35:44;8.23;;;3.20;;
12429;SDS011;6279;42.192;24.326;2023-05-08T05:38:09;10.53;;;4.80;;
12429;SDS011;6279;42.192;24.326;2023-05-08T05:40:35;10.33;;;3.80;;
12429;SDS011;6279;42.192;24.326;2023-05-08T05:43:00;3.87;;;3.03;;
12429;SDS011;6279;42.192;24.326;2023-05-08T05:45:26;4.70;;;3.20;;
12429;SDS011;6279;42.192;24.326;2023-05-08T05:47:51;6.57;;;3.10;;
12429;SDS011;6279;42.192;24.326;2023-05-08T05:50:17;3.60;;;2.87;;
12429;SDS011;6279;42.192;24.326;2023-05-08T05:52:43;4.70;;;3.10;;
12429;SDS011;6279;42.192;24.326;2023-05-08T05:55:09;3.47;;;2.87;;
12429;SDS011;6279;42.192;24.326;2023-05-08T05:57:34;6.03;;;3.40;;
12429;SDS011;6279;42.192;24.326;2023-05-08T06:00:01;5.33;;;2.70;;
12429;SDS011;6279;42.192;24.326;2023-05-08T06:02:28;6.03;;;2.90;;
12429;SDS011;6279;42.192;24.326;2023-05-08T06:04:53;4.80;;;2.73;;
12429;SDS011;6279;42.192;24.326;2023-05-08T06:07:19;9.47;;;3.70;;
12429;SDS011;6279;42.192;24.326;2023-05-08T06:09:45;4.07;;;2.70;;
12429;SDS011;6279;42.192;24.326;2023-05-08T06:12:11;5.20;;;2.70;;
12429;SDS011;6279;42.192;24.326;2023-05-08T06:14:36;5.07;;;2.77;;
12429;SDS011;6279;42.192;24.326;2023-05-08T06:17:01;4.50;;;2.40;;
12429;SDS011;6279;42.192;24.326;2023-05-08T06:19:27;3.60;;;2.50;;
12429;SDS011;6279;42.192;24.326;2023-05-08T06:21:52;2.97;;;2.60;;
12429;SDS011;6279;42.192;24.326;2023-05-08T06:24:18;17.63;;;4.20;;
12429;SDS011;6279;42.192;24.326;2023-05-08T06:26:44;6.73;;;2.53;;
12429;SDS011;6279;42.192;24.326;2023-05-08T06:29:10;5.37;;;2.30;;
12429;SDS011;6279;42.192;24.326;2023-05-08T06:31:36;7.37;;;3.40;;
12429;SDS011;6279;42.192;24.326;2023-05-08T06:34:01;6.47;;;2.33;;
12429;SDS011;6279;42.192;24.326;2023-05-08T06:36:26;2.57;;;2.37;;
12429;SDS011;6279;42.192;24.326;2023-05-08T06:38:52;3.80;;;2.60;;
12429;SDS011;6279;42.192;24.326;2023-05-08T06:41:17;4.20;;;2.57;;
12429;SDS011;6279;42.192;24.326;2023-05-08T06:43:43;4.00;;;2.20;;
12429;SDS011;6279;42.192;24.326;2023-05-08T06:46:08;5.53;;;2.50;;
12429;SDS011;6279;42.192;24.326;2023-05-08T06:48:34;2.33;;;1.90;;
12429;SDS011;6279;42.192;24.326;2023-05-08T06:50:59;2.63;;;2.20;;
12429;SDS011;6279;42.192;24.326;2023-05-08T06:53:25;5.77;;;2.20;;
12429;SDS011;6279;42.192;24.326;2023-05-08T06:55:51;5.23;;;2.40;;
12429;SDS011;6279;42.192;24.326;2023-05-08T06:58:16;2.87;;;2.20;;
12429;SDS011;6279;42.192;24.326;2023-05-08T07:00:42;4.60;;;2.10;;
12429;SDS011;6279;42.192;24.326;2023-05-08T07:03:07;3.83;;;2.37;;
12429;SDS011;6279;42.192;24.326;2023-05-08T07:05:33;6.07;;;2.67;;
12429;SDS011;6279;42.192;24.326;2023-05-08T07:07:58;3.83;;;2.60;;
12429;SDS011;6279;42.192;24.326;2023-05-08T07:10:23;3.80;;;2.10;;
12429;SDS011;6279;42.192;24.326;2023-05-08T07:12:49;4.67;;;2.37;;
12429;SDS011;6279;42.192;24.326;2023-05-08T07:15:15;3.87;;;2.40;;
12429;SDS011;6279;42.192;24.326;2023-05-08T07:17:40;5.50;;;2.20;;
12429;SDS011;6279;42.192;24.326;2023-05-08T07:20:06;3.67;;;2.40;;
12429;SDS011;6279;42.192;24.326;2023-05-08T07:22:32;3.90;;;2.27;;
12429;SDS011;6279;42.192;24.326;2023-05-08T07:24:58;5.53;;;2.30;;
12429;SDS011;6279;42.192;24.326;2023-05-08T07:27:24;2.93;;;2.30;;
12429;SDS011;6279;42.192;24.326;2023-05-08T07:29:49;5.40;;;2.90;;
12429;SDS011;6279;42.192;24.326;2023-05-08T07:32:15;5.03;;;2.30;;
12429;SDS011;6279;42.192;24.326;2023-05-08T07:34:40;5.90;;;2.90;;
12429;SDS011;6279;42.192;24.326;2023-05-08T07:37:06;4.43;;;2.33;;
12429;SDS011;6279;42.192;24.326;2023-05-08T07:39:31;3.73;;;2.67;;
12429;SDS011;6279;42.192;24.326;2023-05-08T07:41:57;3.63;;;2.47;;
12429;SDS011;6279;42.192;24.326;2023-05-08T07:44:22;3.67;;;2.40;;
12429;SDS011;6279;42.192;24.326;2023-05-08T07:46:47;4.23;;;2.50;;
12429;SDS011;6279;42.192;24.326;2023-05-08T07:49:13;4.43;;;2.60;;
12429;SDS011;6279;42.192;24.326;2023-05-08T07:51:38;7.50;;;2.67;;
12429;SDS011;6279;42.192;24.326;2023-05-08T07:54:04;5.20;;;2.30;;
12429;SDS011;6279;42.192;24.326;2023-05-08T07:56:30;4.90;;;2.30;;
12429;SDS011;6279;42.192;24.326;2023-05-08T07:58:55;5.10;;;2.70;;
12429;SDS011;6279;42.192;24.326;2023-05-08T08:01:21;5.43;;;2.30;;
12429;SDS011;6279;42.192;24.326;2023-05-08T08:03:46;4.55;;;2.33;;
12429;SDS011;6279;42.192;24.326;2023-05-08T08:06:12;4.63;;;2.90;;
12429;SDS011;6279;42.192;24.326;2023-05-08T08:08:38;4.30;;;2.35;;
12429;SDS011;6279;42.192;24.326;2023-05-08T08:11:04;5.22;;;2.42;;
12429;SDS011;6279;42.192;24.326;2023-05-08T08:13:30;4.78;;;2.55;;
12429;SDS011;6279;42.192;24.326;2023-05-08T08:15:56;3.67;;;2.50;;
12429;SDS011;6279;42.192;24.326;2023-05-08T08:18:22;3.42;;;2.38;;
12429;SDS011;6279;42.192;24.326;2023-05-08T08:20:47;3.00;;;2.50;;
12429;SDS011;6279;42.192;24.326;2023-05-08T08:23:13;4.30;;;2.50;;
12429;SDS011;6279;42.192;24.326;2023-05-08T08:25:38;9.43;;;3.00;;
12429;SDS011;6279;42.192;24.326;2023-05-08T08:28:03;7.85;;;2.85;;
12429;SDS011;6279;42.192;24.326;2023-05-08T08:30:29;3.55;;;2.40;;
12429;SDS011;6279;42.192;24.326;2023-05-08T08:32:54;5.68;;;2.63;;
12429;SDS011;6279;42.192;24.326;2023-05-08T08:35:20;3.28;;;2.33;;
12429;SDS011;6279;42.192;24.326;2023-05-08T08:37:46;7.25;;;2.20;;
12429;SDS011;6279;42.192;24.326;2023-05-08T08:40:12;7.00;;;2.53;;
12429;SDS011;6279;42.192;24.326;2023-05-08T08:42:37;7.10;;;2.70;;
12429;SDS011;6279;42.192;24.326;2023-05-08T08:45:03;6.82;;;2.60;;
12429;SDS011;6279;42.192;24.326;2023-05-08T08:47:31;4.53;;;2.63;;
12429;SDS011;6279;42.192;24.326;2023-05-08T08:50:01;5.38;;;2.83;;
12429;SDS011;6279;42.192;24.326;2023-05-08T08:55:11;2.67;;;1.90;;
12429;SDS011;6279;42.192;24.326;2023-05-08T08:57:41;2.97;;;2.03;;
12429;SDS011;6279;42.192;24.326;2023-05-08T09:00:13;3.80;;;2.28;;
12429;SDS011;6279;42.192;24.326;2023-05-08T09:02:39;6.57;;;2.45;;
12429;SDS011;6279;42.192;24.326;2023-05-08T09:05:05;5.50;;;2.65;;
12429;SDS011;6279;42.192;24.326;2023-05-08T09:07:32;4.22;;;2.70;;
12429;SDS011;6279;42.192;24.326;2023-05-08T09:09:57;5.78;;;3.00;;
12429;SDS011;6279;42.192;24.326;2023-05-08T09:12:23;6.10;;;3.10;;
12429;SDS011;6279;42.192;24.326;2023-05-08T09:14:49;6.32;;;3.10;;
12429;SDS011;6279;42.192;24.326;2023-05-08T09:17:15;5.45;;;3.38;;
12429;SDS011;6279;42.192;24.326;2023-05-08T09:19:40;4.20;;;3.00;;
12429;SDS011;6279;42.192;24.326;2023-05-08T09:22:06;4.15;;;3.20;;
12429;SDS011;6279;42.192;24.326;2023-05-08T09:27:22;4.97;;;2.92;;
12429;SDS011;6279;42.192;24.326;2023-05-08T09:32:25;4.90;;;2.83;;
12429;SDS011;6279;42.192;24.326;2023-05-08T09:34:53;3.40;;;2.63;;
12429;SDS011;6279;42.192;24.326;2023-05-08T09:37:19;4.07;;;2.60;;
12429;SDS011;6279;42.192;24.326;2023-05-08T09:39:45;3.35;;;2.63;;
12429;SDS011;6279;42.192;24.326;2023-05-08T09:42:12;3.33;;;2.70;;
12429;SDS011;6279;42.192;24.326;2023-05-08T09:44:48;5.03;;;2.83;;
12429;SDS011;6279;42.192;24.326;2023-05-08T09:47:21;7.55;;;2.67;;
12429;SDS011;6279;42.192;24.326;2023-05-08T09:49:57;3.20;;;2.50;;
12429;SDS011;6279;42.192;24.326;2023-05-08T09:52:24;3.65;;;2.60;;
12429;SDS011;6279;42.192;24.326;2023-05-08T09:57:23;5.85;;;2.90;;
12429;SDS011;6279;42.192;24.326;2023-05-08T09:59:50;6.78;;;2.78;;
12429;SDS011;6279;42.192;24.326;2023-05-08T10:02:15;5.45;;;2.50;;
12429;SDS011;6279;42.192;24.326;2023-05-08T10:04:41;7.90;;;3.22;;
12429;SDS011;6279;42.192;24.326;2023-05-08T10:07:06;10.38;;;2.90;;
12429;SDS011;6279;42.192;24.326;2023-05-08T10:09:32;4.05;;;2.78;;
12429;SDS011;6279;42.192;24.326;2023-05-08T10:11:57;6.80;;;2.92;;
12429;SDS011;6279;42.192;24.326;2023-05-08T10:14:23;5.63;;;3.20;;
12429;SDS011;6279;42.192;24.326;2023-05-08T10:16:51;4.45;;;2.55;;
12429;SDS011;6279;42.192;24.326;2023-05-08T10:19:17;3.20;;;2.30;;
12429;SDS011;6279;42.192;24.326;2023-05-08T10:21:45;5.88;;;2.97;;
12429;SDS011;6279;42.192;24.326;2023-05-08T10:24:16;2.95;;;2.50;;
12429;SDS011;6279;42.192;24.326;2023-05-08T10:29:52;7.35;;;3.03;;
12429;SDS011;6279;42.192;24.326;2023-05-08T10:32:19;4.95;;;2.60;;
12429;SDS011;6279;42.192;24.326;2023-05-08T10:34:46;5.57;;;2.83;;
12429;SDS011;6279;42.192;24.326;2023-05-08T10:37:17;4.15;;;2.70;;
12429;SDS011;6279;42.192;24.326;2023-05-08T10:39:44;3.90;;;3.10;;
12429;SDS011;6279;42.192;24.326;2023-05-08T10:42:10;7.55;;;4.63;;
12429;SDS011;6279;42.192;24.326;2023-05-08T10:44:37;6.10;;;2.70;;
12429;SDS011;6279;42.192;24.326;2023-05-08T10:56:17;6.93;;;3.08;;
12429;SDS011;6279;42.192;24.326;2023-05-08T10:58:53;4.93;;;3.53;;
12429;SDS011;6279;42.192;24.326;2023-05-08T11:01:20;4.00;;;2.95;;
12429;SDS011;6279;42.192;24.326;2023-05-08T11:03:48;7.20;;;3.20;;
12429;SDS011;6279;42.192;24.326;2023-05-08T11:09:13;8.65;;;3.55;;
12429;SDS011;6279;42.192;24.326;2023-05-08T11:11:44;7.50;;;3.47;;
12429;SDS011;6279;42.192;24.326;2023-05-08T11:14:18;5.80;;;3.08;;
12429;SDS011;6279;42.192;24.326;2023-05-08T11:19:21;4.60;;;3.33;;
12429;SDS011;6279;42.192;24.326;2023-05-08T11:24:35;4.75;;;2.70;;
12429;SDS011;6279;42.192;24.326;2023-05-08T11:27:01;5.80;;;3.53;;
12429;SDS011;6279;42.192;24.326;2023-05-08T11:29:27;4.97;;;3.15;;
12429;SDS011;6279;42.192;24.326;2023-05-08T11:31:52;23.50;;;4.78;;
12429;SDS011;6279;42.192;24.326;2023-05-08T11:37:10;10.23;;;3.88;;
12429;SDS011;6279;42.192;24.326;2023-05-08T11:39:36;5.80;;;3.42;;
12429;SDS011;6279;42.192;24.326;2023-05-08T11:44:59;4.78;;;3.42;;
12429;SDS011;6279;42.192;24.326;2023-05-08T11:47:25;4.80;;;3.67;;
12429;SDS011;6279;42.192;24.326;2023-05-08T11:50:00;10.30;;;3.55;;
12429;SDS011;6279;42.192;24.326;2023-05-08T11:52:26;6.72;;;3.85;;
12429;SDS011;6279;42.192;24.326;2023-05-08T11:54:53;18.02;;;3.22;;
12429;SDS011;6279;42.192;24.326;2023-05-08T11:57:18;4.88;;;2.88;;
12429;SDS011;6279;42.192;24.326;2023-05-08T11:59:48;4.97;;;3.08;;
12429;SDS011;6279;42.192;24.326;2023-05-08T12:02:13;4.50;;;3.17;;
12429;SDS011;6279;42.192;24.326;2023-05-08T12:04:42;5.90;;;2.83;;
12429;SDS011;6279;42.192;24.326;2023-05-08T12:07:09;20.55;;;3.30;;
12429;SDS011;6279;42.192;24.326;2023-05-08T12:09:35;3.97;;;2.60;;
12429;SDS011;6279;42.192;24.326;2023-05-08T12:12:02;9.35;;;3.60;;
12429;SDS011;6279;42.192;24.326;2023-05-08T12:14:28;8.77;;;2.90;;
12429;SDS011;6279;42.192;24.326;2023-05-08T12:16:53;5.30;;;3.63;;
12429;SDS011;6279;42.192;24.326;2023-05-08T12:19:18;6.40;;;5.15;;
12429;SDS011;6279;42.192;24.326;2023-05-08T12:21:44;4.78;;;4.07;;
12429;SDS011;6279;42.192;24.326;2023-05-08T12:24:14;4.10;;;2.92;;
12429;SDS011;6279;42.192;24.326;2023-05-08T12:26:46;4.72;;;3.28;;
12429;SDS011;6279;42.192;24.326;2023-05-08T12:29:12;7.82;;;3.70;;
12429;SDS011;6279;42.192;24.326;2023-05-08T12:31:37;4.68;;;2.85;;
12429;SDS011;6279;42.192;24.326;2023-05-08T12:34:03;5.85;;;2.70;;
12429;SDS011;6279;42.192;24.326;2023-05-08T12:36:36;4.47;;;2.88;;
12429;SDS011;6279;42.192;24.326;2023-05-08T12:39:08;4.18;;;2.47;;
12429;SDS011;6279;42.192;24.326;2023-05-08T12:41:41;4.72;;;2.75;;
12429;SDS011;6279;42.192;24.326;2023-05-08T12:44:17;3.25;;;2.60;;
12429;SDS011;6279;42.192;24.326;2023-05-08T12:46:59;7.40;;;2.40;;
12429;SDS011;6279;42.192;24.326;2023-05-08T12:49:28;3.22;;;2.70;;
12429;SDS011;6279;42.192;24.326;2023-05-08T12:54:34;3.10;;;2.78;;
12429;SDS011;6279;42.192;24.326;2023-05-08T12:57:00;3.92;;;2.50;;
12429;SDS011;6279;42.192;24.326;2023-05-08T12:59:34;4.38;;;2.60;;
12429;SDS011;6279;42.192;24.326;2023-05-08T13:02:00;6.90;;;2.90;;
12429;SDS011;6279;42.192;24.326;2023-05-08T13:04:25;4.57;;;2.65;;
12429;SDS011;6279;42.192;24.326;2023-05-08T13:06:56;3.53;;;2.42;;
12429;SDS011;6279;42.192;24.326;2023-05-08T13:09:22;4.38;;;2.75;;
12429;SDS011;6279;42.192;24.326;2023-05-08T13:11:48;4.25;;;2.78;;
12429;SDS011;6279;42.192;24.326;2023-05-08T13:14:13;3.65;;;2.67;;
12429;SDS011;6279;42.192;24.326;2023-05-08T13:16:43;5.68;;;2.97;;
12429;SDS011;6279;42.192;24.326;2023-05-08T13:19:09;6.53;;;2.83;;
12429;SDS011;6279;42.192;24.326;2023-05-08T13:21:34;2.90;;;2.60;;
12429;SDS011;6279;42.192;24.326;2023-05-08T13:23:59;4.85;;;2.75;;
12429;SDS011;6279;42.192;24.326;2023-05-08T13:26:25;3.83;;;2.53;;
12429;SDS011;6279;42.192;24.326;2023-05-08T13:28:51;5.57;;;2.65;;
12429;SDS011;6279;42.192;24.326;2023-05-08T13:31:16;3.80;;;2.90;;
12429;SDS011;6279;42.192;24.326;2023-05-08T13:33:42;5.70;;;2.90;;
12429;SDS011;6279;42.192;24.326;2023-05-08T13:36:07;3.80;;;2.60;;
12429;SDS011;6279;42.192;24.326;2023-05-08T13:38:33;3.97;;;3.17;;
12429;SDS011;6279;42.192;24.326;2023-05-08T13:41:01;5.43;;;3.15;;
12429;SDS011;6279;42.192;24.326;2023-05-08T13:43:26;3.28;;;2.78;;
12429;SDS011;6279;42.192;24.326;2023-05-08T13:45:52;5.03;;;2.95;;
12429;SDS011;6279;42.192;24.326;2023-05-08T13:48:18;6.43;;;3.60;;
12429;SDS011;6279;42.192;24.326;2023-05-08T13:50:43;5.25;;;3.28;;
12429;SDS011;6279;42.192;24.326;2023-05-08T13:53:09;4.07;;;3.00;;
12429;SDS011;6279;42.192;24.326;2023-05-08T13:55:34;5.30;;;3.10;;
12429;SDS011;6279;42.192;24.326;2023-05-08T13:58:00;4.57;;;2.53;;
12429;SDS011;6279;42.192;24.326;2023-05-08T14:00:26;8.13;;;3.40;;
12429;SDS011;6279;42.192;24.326;2023-05-08T14:02:51;4.95;;;3.40;;
12429;SDS011;6279;42.192;24.326;2023-05-08T14:05:17;5.38;;;3.63;;
12429;SDS011;6279;42.192;24.326;2023-05-08T14:07:42;4.65;;;3.00;;
12429;SDS011;6279;42.192;24.326;2023-05-08T14:10:09;4.22;;;3.30;;
12429;SDS011;6279;42.192;24.326;2023-05-08T14:12:34;5.55;;;3.25;;
12429;SDS011;6279;42.192;24.326;2023-05-08T14:15:02;5.60;;;3.17;;
12429;SDS011;6279;42.192;24.326;2023-05-08T14:17:28;6.95;;;3.70;;
12429;SDS011;6279;42.192;24.326;2023-05-08T14:19:54;6.10;;;3.92;;
12429;SDS011;6279;42.192;24.326;2023-05-08T14:22:19;8.90;;;4.10;;
12429;SDS011;6279;42.192;24.326;2023-05-08T14:24:45;5.60;;;3.90;;
12429;SDS011;6279;42.192;24.326;2023-05-08T14:27:10;6.22;;;4.32;;
12429;SDS011;6279;42.192;24.326;2023-05-08T14:29:36;5.15;;;4.03;;
12429;SDS011;6279;42.192;24.326;2023-05-08T14:32:01;3.90;;;3.13;;
12429;SDS011;6279;42.192;24.326;2023-05-08T14:34:27;5.87;;;3.87;;
12429;SDS011;6279;42.192;24.326;2023-05-08T14:36:52;10.53;;;4.10;;
12429;SDS011;6279;42.192;24.326;2023-05-08T14:39:18;6.57;;;3.10;;
12429;SDS011;6279;42.192;24.326;2023-05-08T14:41:43;4.33;;;3.00;;
12429;SDS011;6279;42.192;24.326;2023-05-08T14:44:09;5.47;;;3.10;;
12429;SDS011;6279;42.192;24.326;2023-05-08T14:46:34;7.03;;;2.90;;
12429;SDS011;6279;42.192;24.326;2023-05-08T14:49:00;4.17;;;2.60;;
12429;SDS011;6279;42.192;24.326;2023-05-08T14:51:25;2.97;;;2.57;;
12429;SDS011;6279;42.192;24.326;2023-05-08T14:53:50;7.00;;;3.20;;
12429;SDS011;6279;42.192;24.326;2023-05-08T14:56:16;7.93;;;3.17;;
12429;SDS011;6279;42.192;24.326;2023-05-08T14:58:42;5.97;;;2.63;;
12429;SDS011;6279;42.192;24.326;2023-05-08T15:01:07;6.90;;;2.30;;
12429;SDS011;6279;42.192;24.326;2023-05-08T15:03:33;4.13;;;2.70;;
12429;SDS011;6279;42.192;24.326;2023-05-08T15:05:58;7.13;;;3.47;;
12429;SDS011;6279;42.192;24.326;2023-05-08T15:08:23;6.23;;;4.50;;
12429;SDS011;6279;42.192;24.326;2023-05-08T15:10:49;11.10;;;4.80;;
12429;SDS011;6279;42.192;24.326;2023-05-08T15:13:15;12.93;;;6.60;;
12429;SDS011;6279;42.192;24.326;2023-05-08T15:15:40;7.10;;;4.50;;
12429;SDS011;6279;42.192;24.326;2023-05-08T15:18:05;11.17;;;5.00;;
12429;SDS011;6279;42.192;24.326;2023-05-08T15:20:31;10.93;;;4.10;;
12429;SDS011;6279;42.192;24.326;2023-05-08T15:22:56;13.67;;;4.33;;
12429;SDS011;6279;42.192;24.326;2023-05-08T15:25:22;13.97;;;7.00;;
12429;SDS011;6279;42.192;24.326;2023-05-08T15:27:50;13.20;;;5.80;;
12429;SDS011;6279;42.192;24.326;2023-05-08T15:30:20;13.20;;;7.13;;
12429;SDS011;6279;42.192;24.326;2023-05-08T15:32:45;8.40;;;4.83;;
12429;SDS011;6279;42.192;24.326;2023-05-08T15:35:11;12.63;;;7.20;;
12429;SDS011;6279;42.192;24.326;2023-05-08T15:37:37;9.07;;;5.43;;
12429;SDS011;6279;42.192;24.326;2023-05-08T15:40:03;8.27;;;5.13;;
12429;SDS011;6279;42.192;24.326;2023-05-08T15:42:29;8.07;;;5.43;;
12429;SDS011;6279;42.192;24.326;2023-05-08T15:44:55;8.47;;;5.00;;
12429;SDS011;6279;42.192;24.326;2023-05-08T15:47:21;10.70;;;5.73;;
12429;SDS011;6279;42.192;24.326;2023-05-08T15:49:47;9.07;;;5.70;;
12429;SDS011;6279;42.192;24.326;2023-05-08T15:52:13;9.07;;;5.13;;
12429;SDS011;6279;42.192;24.326;2023-05-08T15:54:42;8.90;;;6.10;;
12429;SDS011;6279;42.192;24.326;2023-05-08T15:57:08;12.67;;;7.83;;
12429;SDS011;6279;42.192;24.326;2023-05-08T15:59:34;8.47;;;7.13;;